createdAt,value
2022-12-31T00:01:43.776Z,57.50
2022-12-31T00:03:46.252Z,57.60
2022-12-31T00:05:48.325Z,57.30
2022-12-31T00:07:50.118Z,57.40
2022-12-31T00:09:51.930Z,57.50
2022-12-31T00:11:56.805Z,57.40
2022-12-31T00:13:59.464Z,57.40
2022-12-31T00:16:12.976Z,57.30
2022-12-31T00:18:14.826Z,57.40
2022-12-31T00:20:17.650Z,58.10
2022-12-31T00:22:19.736Z,57.30
2022-12-31T00:24:21.590Z,57.90
2022-12-31T00:26:25.921Z,58.20
2022-12-31T00:28:27.693Z,58.30
2022-12-31T00:30:29.547Z,58.30
2022-12-31T00:32:31.457Z,58.60
2022-12-31T00:34:33.233Z,58.60
2022-12-31T00:36:37.417Z,59.10
2022-12-31T00:38:41.173Z,58.90
2022-12-31T00:40:43.012Z,58.80
2022-12-31T00:42:44.834Z,58.80
2022-12-31T00:44:46.688Z,58.90
2022-12-31T00:46:48.586Z,58.60
2022-12-31T00:48:50.718Z,58.40
2022-12-31T00:50:53.674Z,58.10
2022-12-31T00:52:55.392Z,58.20
2022-12-31T00:54:57.864Z,58.20
2022-12-31T00:57:00.016Z,58.40
2022-12-31T00:59:01.868Z,58.30
2022-12-31T01:01:12.252Z,58.40
2022-12-31T01:03:14.211Z,58.40
2022-12-31T01:05:16.138Z,58.20
2022-12-31T01:07:17.911Z,58.10
2022-12-31T01:09:19.681Z,58.10
2022-12-31T01:11:22.899Z,57.90
2022-12-31T01:13:24.786Z,57.70
2022-12-31T01:15:27.093Z,58.00
2022-12-31T01:17:28.928Z,57.90
2022-12-31T01:19:30.757Z,57.40
2022-12-31T01:21:33.552Z,57.30
2022-12-31T01:23:36.209Z,56.90
2022-12-31T01:25:39.445Z,56.60
2022-12-31T01:27:41.196Z,56.30
2022-12-31T01:29:43.012Z,56.00
2022-12-31T01:31:44.866Z,55.50
2022-12-31T01:33:46.962Z,55.40
2022-12-31T01:35:49.717Z,55.60
2022-12-31T01:37:51.733Z,55.30
2022-12-31T01:39:53.499Z,54.80
2022-12-31T01:41:55.401Z,54.80
2022-12-31T01:44:02.899Z,54.70
2022-12-31T01:46:05.581Z,55.00
2022-12-31T01:48:11.633Z,54.90
2022-12-31T01:50:30.347Z,54.50
2022-12-31T01:52:41.380Z,54.90
2022-12-31T01:54:48.877Z,55.00
2022-12-31T01:56:52.723Z,55.20
2022-12-31T01:58:56.824Z,55.20
2022-12-31T02:00:59.436Z,55.00
2022-12-31T02:03:01.905Z,55.20
2022-12-31T02:05:13.765Z,55.20
2022-12-31T02:07:15.583Z,55.80
2022-12-31T02:09:17.593Z,55.30
2022-12-31T02:11:28.949Z,55.60
2022-12-31T02:13:30.805Z,56.30
2022-12-31T02:16:00.409Z,56.40
2022-12-31T02:18:17.260Z,56.70
2022-12-31T02:20:30.896Z,56.50
2022-12-31T02:22:38.581Z,56.80
2022-12-31T02:24:56.409Z,56.70
2022-12-31T02:27:11.915Z,56.50
2022-12-31T02:29:16.729Z,56.60
2022-12-31T02:31:35.749Z,56.90
2022-12-31T02:33:43.869Z,56.80
2022-12-31T02:36:20.401Z,57.10
2022-12-31T02:38:32.606Z,57.50
2022-12-31T02:40:36.862Z,57.30
2022-12-31T02:42:38.988Z,57.30
2022-12-31T02:44:42.336Z,57.00
2022-12-31T02:47:09.606Z,56.90
2022-12-31T02:49:21.695Z,57.40
2022-12-31T02:51:50.107Z,57.30
2022-12-31T02:54:19.589Z,57.30
2022-12-31T02:56:58.691Z,57.50
2022-12-31T02:59:21.964Z,57.60
2022-12-31T03:01:48.850Z,57.60
2022-12-31T03:04:11.074Z,57.90
2022-12-31T03:06:14.318Z,57.60
2022-12-31T03:08:23.845Z,57.50
2022-12-31T03:10:25.633Z,57.30
2022-12-31T03:12:46.464Z,57.40
2022-12-31T03:14:48.527Z,57.50
2022-12-31T03:16:50.326Z,57.50
2022-12-31T03:19:10.584Z,57.00
2022-12-31T03:21:32.459Z,57.40
2022-12-31T03:23:40.968Z,57.40
2022-12-31T03:25:43.992Z,57.40
2022-12-31T03:27:48.639Z,57.90
2022-12-31T03:29:50.631Z,58.00
2022-12-31T03:31:52.526Z,57.90
2022-12-31T03:33:55.595Z,57.80
2022-12-31T03:35:57.541Z,57.70
2022-12-31T03:37:59.371Z,57.50
2022-12-31T03:40:01.300Z,57.80
2022-12-31T03:42:03.165Z,57.00
2022-12-31T03:44:05.185Z,57.10
2022-12-31T03:46:07.173Z,57.10
2022-12-31T03:48:09.745Z,56.70
2022-12-31T03:50:14.284Z,57.10
2022-12-31T03:52:16.285Z,56.40
2022-12-31T03:54:18.243Z,56.20
2022-12-31T03:56:20.033Z,56.10
2022-12-31T03:58:22.129Z,56.00
2022-12-31T04:00:24.229Z,55.60
2022-12-31T04:02:28.824Z,55.20
2022-12-31T04:04:31.391Z,55.30
2022-12-31T04:06:33.231Z,55.10
2022-12-31T04:08:35.155Z,54.90
2022-12-31T04:10:37.567Z,55.00
2022-12-31T04:12:39.859Z,55.30
2022-12-31T04:14:41.663Z,55.00
2022-12-31T04:16:44.565Z,54.80
2022-12-31T04:18:47.718Z,54.50
2022-12-31T04:20:49.572Z,54.40
2022-12-31T04:22:51.423Z,54.50
2022-12-31T04:24:53.204Z,54.00
2022-12-31T04:26:55.207Z,54.10
2022-12-31T04:28:57.293Z,53.50
2022-12-31T04:30:59.105Z,53.50
2022-12-31T04:33:00.875Z,53.50
2022-12-31T04:35:02.661Z,53.40
2022-12-31T04:37:04.432Z,52.70
2022-12-31T04:39:06.201Z,52.40
2022-12-31T04:41:18.279Z,52.00
2022-12-31T04:43:20.043Z,51.80
2022-12-31T04:45:21.824Z,51.80
2022-12-31T04:47:26.229Z,52.10
2022-12-31T04:49:28.017Z,51.90
2022-12-31T04:51:31.209Z,51.80
2022-12-31T04:53:33.002Z,51.80
2022-12-31T04:55:34.771Z,51.30
2022-12-31T04:57:36.571Z,51.50
2022-12-31T04:59:38.324Z,51.40
2022-12-31T05:01:40.142Z,51.10
2022-12-31T05:03:42.505Z,51.10
2022-12-31T05:05:44.875Z,50.90
2022-12-31T05:07:46.667Z,50.90
2022-12-31T05:09:48.578Z,50.60
2022-12-31T05:11:50.713Z,50.00
2022-12-31T05:13:52.501Z,50.20
2022-12-31T05:15:54.486Z,50.20
2022-12-31T05:17:57.327Z,49.90
2022-12-31T05:19:59.071Z,49.70
2022-12-31T05:22:19.502Z,49.30
2022-12-31T05:24:21.239Z,49.10
2022-12-31T05:26:23.127Z,49.50
2022-12-31T05:28:24.914Z,48.80
2022-12-31T05:30:26.862Z,48.70
2022-12-31T05:32:28.763Z,48.40
2022-12-31T05:34:30.554Z,48.30
2022-12-31T05:36:32.284Z,48.40
2022-12-31T05:38:34.101Z,48.20
2022-12-31T05:40:35.786Z,47.90
2022-12-31T05:42:37.959Z,47.80
2022-12-31T05:44:40.020Z,47.60
2022-12-31T05:46:41.786Z,47.30
2022-12-31T05:48:43.614Z,47.10
2022-12-31T05:50:45.369Z,46.90
2022-12-31T05:52:47.762Z,46.90
2022-12-31T05:54:49.764Z,46.50
2022-12-31T05:56:51.608Z,46.60
2022-12-31T05:58:53.510Z,46.30
2022-12-31T06:00:55.311Z,46.30
2022-12-31T06:02:57.213Z,45.90
2022-12-31T06:05:00.264Z,46.20
2022-12-31T06:07:02.124Z,45.90
2022-12-31T06:09:04.029Z,45.80
2022-12-31T06:11:05.782Z,45.70
2022-12-31T06:13:07.936Z,45.60
2022-12-31T06:15:11.536Z,45.60
2022-12-31T06:17:13.474Z,45.60
2022-12-31T06:19:15.318Z,45.40
2022-12-31T06:21:18.170Z,45.00
2022-12-31T06:23:19.963Z,44.90
2022-12-31T06:25:21.927Z,44.80
2022-12-31T06:27:23.723Z,44.70
2022-12-31T06:29:25.523Z,44.70
2022-12-31T06:31:27.487Z,44.50
2022-12-31T06:33:29.912Z,44.40
2022-12-31T06:35:31.895Z,44.30
2022-12-31T06:37:33.772Z,44.10
2022-12-31T06:39:35.632Z,43.80
2022-12-31T06:41:37.523Z,43.70
2022-12-31T06:43:40.566Z,43.60
2022-12-31T06:45:42.545Z,43.70
2022-12-31T06:47:44.339Z,43.70
2022-12-31T06:49:46.018Z,43.70
2022-12-31T06:51:47.798Z,43.30
2022-12-31T06:53:50.847Z,43.50
2022-12-31T06:55:53.198Z,43.40
2022-12-31T06:57:55.532Z,43.00
2022-12-31T06:59:57.755Z,43.00
2022-12-31T07:02:22.563Z,43.00
2022-12-31T07:04:56.507Z,43.10
2022-12-31T07:07:09.888Z,43.00
2022-12-31T07:09:29.930Z,43.10
2022-12-31T07:11:59.215Z,43.00
2022-12-31T07:14:06.639Z,43.00
2022-12-31T07:16:49.070Z,43.00
2022-12-31T07:18:56.478Z,42.80
2022-12-31T07:20:58.794Z,43.10
2022-12-31T07:23:00.846Z,43.00
2022-12-31T07:25:03.466Z,43.50
2022-12-31T07:27:39.725Z,42.80
2022-12-31T07:30:09.182Z,42.80
2022-12-31T07:32:40.307Z,42.60
2022-12-31T07:35:04.355Z,42.30
2022-12-31T07:37:08.909Z,42.50
2022-12-31T07:39:22.031Z,42.60
2022-12-31T07:41:39.097Z,42.30
2022-12-31T07:44:06.882Z,42.30
2022-12-31T07:46:22.113Z,42.20
2022-12-31T07:48:26.852Z,42.00
2022-12-31T07:50:29.021Z,41.90
2022-12-31T07:52:31.214Z,41.90
2022-12-31T07:54:33.302Z,41.80
2022-12-31T07:56:35.344Z,41.60
2022-12-31T07:58:40.599Z,41.70
2022-12-31T08:00:42.430Z,41.50
2022-12-31T08:03:25.321Z,41.30
2022-12-31T08:05:31.853Z,41.40
2022-12-31T08:07:55.679Z,41.00
2022-12-31T08:10:15.687Z,40.70
2022-12-31T08:12:21.599Z,40.70
2022-12-31T08:14:23.634Z,40.50
2022-12-31T08:16:25.984Z,40.60
2022-12-31T08:18:28.208Z,40.30
2022-12-31T08:20:32.296Z,40.20
2022-12-31T08:22:50.042Z,40.30
2022-12-31T08:25:12.227Z,40.10
2022-12-31T08:27:26.859Z,39.90
2022-12-31T08:29:46.332Z,39.60
2022-12-31T08:32:00.147Z,39.50
2022-12-31T08:34:06.127Z,39.50
2022-12-31T08:36:34.881Z,39.20
2022-12-31T08:38:50.678Z,39.20
2022-12-31T08:40:58.409Z,39.00
2022-12-31T08:43:26.896Z,39.00
2022-12-31T08:46:01.576Z,39.00
2022-12-31T08:48:10.115Z,38.80
2022-12-31T08:50:17.803Z,38.70
2022-12-31T08:52:24.313Z,38.60
2022-12-31T08:54:26.775Z,38.50
2022-12-31T08:56:36.281Z,38.40
2022-12-31T08:59:01.771Z,38.30
2022-12-31T09:01:06.727Z,38.20
2022-12-31T09:03:33.219Z,38.10
2022-12-31T09:06:02.464Z,38.70
2022-12-31T09:08:38.310Z,38.10
2022-12-31T09:11:10.673Z,37.90
2022-12-31T09:13:20.036Z,37.60
2022-12-31T09:15:36.457Z,37.60
2022-12-31T09:17:47.222Z,37.40
2022-12-31T09:19:49.545Z,37.60
2022-12-31T09:21:51.686Z,37.50
2022-12-31T09:23:53.796Z,37.40
2022-12-31T09:26:16.029Z,37.30
2022-12-31T09:28:33.035Z,37.30
2022-12-31T09:30:49.464Z,37.00
2022-12-31T09:33:31.541Z,37.10
2022-12-31T09:35:53.986Z,36.90
2022-12-31T09:38:11.268Z,36.80
2022-12-31T09:40:38.779Z,36.70
2022-12-31T09:43:17.442Z,36.70
2022-12-31T09:45:37.613Z,36.20
2022-12-31T09:48:07.023Z,36.30
2022-12-31T09:50:51.601Z,36.20
2022-12-31T09:53:02.561Z,36.10
2022-12-31T09:55:34.619Z,35.90
2022-12-31T09:58:05.366Z,36.10
2022-12-31T10:00:31.153Z,36.10
2022-12-31T10:02:59.744Z,36.00
2022-12-31T10:05:42.412Z,36.30
2022-12-31T10:08:01.872Z,36.00
2022-12-31T10:10:12.212Z,36.00
2022-12-31T10:12:51.772Z,35.80
2022-12-31T10:15:21.412Z,35.60
2022-12-31T10:17:28.883Z,35.70
2022-12-31T10:19:54.865Z,35.60
2022-12-31T10:22:14.852Z,35.50
2022-12-31T10:24:27.457Z,35.50
2022-12-31T10:26:57.037Z,35.80
2022-12-31T10:29:33.331Z,35.40
2022-12-31T10:31:48.225Z,34.90
2022-12-31T10:34:15.681Z,34.70
2022-12-31T10:36:46.066Z,34.70
2022-12-31T10:39:15.442Z,34.60
2022-12-31T10:41:55.925Z,34.20
2022-12-31T10:44:10.696Z,34.00
2022-12-31T10:46:50.281Z,34.10
2022-12-31T10:48:52.150Z,33.90
2022-12-31T10:51:20.436Z,33.90
2022-12-31T10:54:06.292Z,34.00
2022-12-31T10:56:13.899Z,34.00
2022-12-31T10:58:37.835Z,33.80
2022-12-31T11:01:04.398Z,33.50
2022-12-31T11:03:34.151Z,33.70
2022-12-31T11:05:38.779Z,33.40
2022-12-31T11:08:13.818Z,33.60
2022-12-31T11:10:40.262Z,33.10
2022-12-31T11:12:50.850Z,33.20
2022-12-31T11:15:18.775Z,33.10
2022-12-31T11:17:48.000Z,33.00
2022-12-31T11:20:33.336Z,33.00
2022-12-31T11:22:35.150Z,32.80
2022-12-31T11:24:55.636Z,32.80
2022-12-31T11:27:35.095Z,32.70
2022-12-31T11:29:49.218Z,32.70
2022-12-31T11:32:04.316Z,32.60
2022-12-31T11:34:22.512Z,32.50
2022-12-31T11:36:40.827Z,32.40
2022-12-31T11:39:30.546Z,32.30
2022-12-31T11:41:42.584Z,32.20
2022-12-31T11:43:55.546Z,32.10
2022-12-31T11:46:14.463Z,32.80
2022-12-31T11:48:32.840Z,32.00
2022-12-31T11:51:01.965Z,32.10
2022-12-31T11:53:41.159Z,32.20
2022-12-31T11:56:10.593Z,32.20
2022-12-31T11:58:15.881Z,32.00
2022-12-31T12:00:20.788Z,32.30
2022-12-31T12:02:42.371Z,32.20
2022-12-31T12:04:48.321Z,32.30
2022-12-31T12:06:51.564Z,32.30
2022-12-31T12:08:59.226Z,32.10
2022-12-31T12:11:08.805Z,32.30
2022-12-31T12:13:20.698Z,32.30
2022-12-31T12:15:27.332Z,32.40
2022-12-31T12:17:32.879Z,32.20
2022-12-31T12:19:41.279Z,32.20
2022-12-31T12:21:49.625Z,32.00
2022-12-31T12:23:55.672Z,31.60
2022-12-31T12:25:57.539Z,31.70
2022-12-31T12:27:59.385Z,31.60
2022-12-31T12:30:21.684Z,31.50
2022-12-31T12:32:26.327Z,31.50
2022-12-31T12:34:34.500Z,31.20
2022-12-31T12:36:46.956Z,30.70
2022-12-31T12:38:59.735Z,30.70
2022-12-31T12:41:04.740Z,30.50
2022-12-31T12:43:19.125Z,30.50
2022-12-31T12:45:26.869Z,30.30
2022-12-31T12:47:29.049Z,30.00
2022-12-31T12:49:44.436Z,29.80
2022-12-31T12:52:25.205Z,29.70
2022-12-31T12:54:48.502Z,29.50
2022-12-31T12:56:59.795Z,29.30
2022-12-31T12:59:22.164Z,29.00
2022-12-31T13:01:46.427Z,29.10
2022-12-31T13:04:37.645Z,28.90
2022-12-31T13:07:14.959Z,28.80
2022-12-31T13:09:35.214Z,28.50
2022-12-31T13:12:07.379Z,28.50
2022-12-31T13:14:33.751Z,28.60
2022-12-31T13:16:35.642Z,28.70
2022-12-31T13:19:05.782Z,28.60
2022-12-31T13:21:30.243Z,28.90
2022-12-31T13:24:10.645Z,29.40
2022-12-31T13:26:32.792Z,29.60
2022-12-31T13:28:37.310Z,29.00
2022-12-31T13:31:06.325Z,28.90
2022-12-31T13:33:13.769Z,29.10
2022-12-31T13:35:28.101Z,28.90
2022-12-31T13:37:40.513Z,28.80
2022-12-31T13:39:44.942Z,28.90
2022-12-31T13:41:50.378Z,28.90
2022-12-31T13:43:59.994Z,28.80
2022-12-31T13:46:09.119Z,28.70
2022-12-31T13:48:19.589Z,28.60
2022-12-31T13:50:27.484Z,28.60
2022-12-31T13:52:44.621Z,28.50
2022-12-31T13:55:18.899Z,28.60
2022-12-31T13:57:39.248Z,28.60
2022-12-31T13:59:48.346Z,28.80
2022-12-31T14:02:31.936Z,28.90
2022-12-31T14:04:39.181Z,28.90
2022-12-31T14:06:55.621Z,28.80
2022-12-31T14:08:57.410Z,28.90
2022-12-31T14:11:20.986Z,29.10
2022-12-31T14:13:49.706Z,29.30
2022-12-31T14:15:57.018Z,29.20
2022-12-31T14:18:21.779Z,29.20
2022-12-31T14:20:46.386Z,29.30
2022-12-31T14:23:18.022Z,29.30
2022-12-31T14:25:33.760Z,29.30
2022-12-31T14:27:43.087Z,29.30
2022-12-31T14:29:53.277Z,29.40
2022-12-31T14:32:12.561Z,29.50
2022-12-31T14:34:38.882Z,29.40
2022-12-31T14:37:10.454Z,29.50
2022-12-31T14:39:36.485Z,29.40
2022-12-31T14:42:02.160Z,29.40
2022-12-31T14:44:20.195Z,29.50
2022-12-31T14:46:31.259Z,29.40
2022-12-31T14:49:11.028Z,29.10
2022-12-31T14:51:13.725Z,29.00
2022-12-31T14:53:23.183Z,29.10
2022-12-31T14:55:28.228Z,29.00
2022-12-31T14:58:17.206Z,28.90
2022-12-31T15:00:24.764Z,29.10
2022-12-31T15:02:28.363Z,29.10
2022-12-31T15:04:33.957Z,29.00
2022-12-31T15:06:57.387Z,29.20
2022-12-31T15:09:30.694Z,29.00
2022-12-31T15:11:57.532Z,28.90
2022-12-31T15:14:24.038Z,29.10
2022-12-31T15:16:38.929Z,29.00
2022-12-31T15:18:55.235Z,29.00
2022-12-31T15:21:21.019Z,29.00
2022-12-31T15:23:25.696Z,29.00
2022-12-31T15:25:40.520Z,29.00
2022-12-31T15:27:47.185Z,29.10
2022-12-31T15:29:48.930Z,29.10
2022-12-31T15:31:51.737Z,29.10
2022-12-31T15:34:06.164Z,29.10
2022-12-31T15:36:20.708Z,29.20
2022-12-31T15:38:33.779Z,29.30
2022-12-31T15:40:46.892Z,29.20
2022-12-31T15:43:20.946Z,29.00
2022-12-31T15:45:36.595Z,29.20
2022-12-31T15:47:43.403Z,29.20
2022-12-31T15:49:47.538Z,29.30
2022-12-31T15:52:08.531Z,29.40
2022-12-31T15:54:37.511Z,29.40
2022-12-31T15:56:47.255Z,29.40
2022-12-31T15:58:54.054Z,29.40
2022-12-31T16:01:16.836Z,29.50
2022-12-31T16:03:25.287Z,29.40
2022-12-31T16:05:27.588Z,29.60
2022-12-31T16:07:29.558Z,29.60
2022-12-31T16:09:36.732Z,29.60
2022-12-31T16:11:41.494Z,29.70
2022-12-31T16:13:47.111Z,29.70
2022-12-31T16:15:52.286Z,29.60
2022-12-31T16:18:09.314Z,29.60
2022-12-31T16:20:32.999Z,29.70
2022-12-31T16:22:39.666Z,29.50
2022-12-31T16:25:02.827Z,29.50
2022-12-31T16:27:09.382Z,29.40
2022-12-31T16:29:16.224Z,29.40
2022-12-31T16:31:19.907Z,29.30
2022-12-31T16:33:22.758Z,29.20
2022-12-31T16:35:30.765Z,29.20
2022-12-31T16:37:32.660Z,29.30
2022-12-31T16:39:38.789Z,29.20
2022-12-31T16:41:43.724Z,29.20
2022-12-31T16:43:47.978Z,29.20
2022-12-31T16:45:50.306Z,29.20
2022-12-31T16:47:53.219Z,29.10
2022-12-31T16:50:10.919Z,29.10
2022-12-31T16:52:36.845Z,29.00
2022-12-31T16:54:44.072Z,29.00
2022-12-31T16:56:46.338Z,29.00
2022-12-31T16:58:48.557Z,28.90
2022-12-31T17:00:51.642Z,29.00
2022-12-31T17:03:07.173Z,28.90
2022-12-31T17:05:23.748Z,28.80
2022-12-31T17:07:29.661Z,28.70
2022-12-31T17:09:36.481Z,28.70
2022-12-31T17:11:50.648Z,28.80
2022-12-31T17:13:55.719Z,28.70
2022-12-31T17:15:59.166Z,29.20
2022-12-31T17:18:02.995Z,28.60
2022-12-31T17:20:09.196Z,28.60
2022-12-31T17:22:49.199Z,28.50
2022-12-31T17:24:52.281Z,28.30
2022-12-31T17:26:54.392Z,28.40
2022-12-31T17:28:58.606Z,28.20
2022-12-31T17:31:02.306Z,28.10
2022-12-31T17:33:28.453Z,28.00
2022-12-31T17:35:35.582Z,27.90
2022-12-31T17:37:37.404Z,27.90
2022-12-31T17:39:44.370Z,27.90
2022-12-31T17:41:47.784Z,27.90
2022-12-31T17:43:54.259Z,27.70
2022-12-31T17:45:56.079Z,27.60
2022-12-31T17:47:59.734Z,27.30
2022-12-31T17:50:24.505Z,27.30
2022-12-31T17:52:26.669Z,27.20
2022-12-31T17:54:28.475Z,27.20
2022-12-31T17:56:30.256Z,27.00
2022-12-31T17:58:54.239Z,26.90
2022-12-31T18:00:56.918Z,26.90
2022-12-31T18:03:00.072Z,26.60
2022-12-31T18:05:02.034Z,26.40
2022-12-31T18:07:03.793Z,26.80
2022-12-31T18:09:05.616Z,26.20
2022-12-31T18:11:11.960Z,26.10
2022-12-31T18:13:17.458Z,25.90
2022-12-31T18:15:24.019Z,25.90
2022-12-31T18:17:26.532Z,25.80
2022-12-31T18:21:50.237Z,25.70
2022-12-31T18:23:52.287Z,25.30
2022-12-31T18:25:54.337Z,25.30
2022-12-31T18:27:56.357Z,25.30
2022-12-31T18:30:04.480Z,25.20
2022-12-31T18:32:19.654Z,25.30
2022-12-31T18:34:22.383Z,25.10
2022-12-31T18:36:25.620Z,25.10
2022-12-31T18:38:27.436Z,25.00
2022-12-31T18:40:29.362Z,24.90
2022-12-31T18:42:31.199Z,24.80
2022-12-31T18:44:33.300Z,24.80
2022-12-31T18:46:35.225Z,24.70
2022-12-31T18:48:37.086Z,24.60
2022-12-31T18:50:39.639Z,24.60
2022-12-31T18:52:41.465Z,24.40
2022-12-31T18:54:43.737Z,24.40
2022-12-31T18:56:48.429Z,24.50
2022-12-31T18:58:53.109Z,24.30
2022-12-31T19:00:55.102Z,24.20
2022-12-31T19:02:58.386Z,24.20
2022-12-31T19:05:00.297Z,24.10
2022-12-31T19:07:02.077Z,24.00
2022-12-31T19:09:06.356Z,23.90
2022-12-31T19:11:20.729Z,24.10
2022-12-31T19:13:23.289Z,24.00
2022-12-31T19:15:47.414Z,23.80
2022-12-31T19:17:49.205Z,23.90
2022-12-31T19:19:51.026Z,23.70
2022-12-31T19:21:52.732Z,24.00
2022-12-31T19:23:54.852Z,23.80
2022-12-31T19:25:56.718Z,23.70
2022-12-31T19:27:58.489Z,23.70
2022-12-31T19:30:01.327Z,23.70
2022-12-31T19:32:03.128Z,23.70
2022-12-31T19:34:04.933Z,23.70
2022-12-31T19:36:09.935Z,23.60
2022-12-31T19:38:23.335Z,23.60
2022-12-31T19:40:30.074Z,23.60
2022-12-31T19:42:31.814Z,23.80
2022-12-31T19:44:33.592Z,24.00
2022-12-31T19:46:35.445Z,24.00
2022-12-31T19:48:37.307Z,24.10
2022-12-31T19:50:45.407Z,24.30
2022-12-31T19:52:49.719Z,24.30
2022-12-31T19:54:51.760Z,24.60
2022-12-31T19:56:53.540Z,24.70
2022-12-31T19:58:55.288Z,24.50
2022-12-31T20:01:02.820Z,24.50
2022-12-31T20:03:05.241Z,24.40
2022-12-31T20:05:07.619Z,24.50
2022-12-31T20:07:09.380Z,24.40
2022-12-31T20:09:11.602Z,24.40
2022-12-31T20:11:19.033Z,24.30
2022-12-31T20:13:20.834Z,24.30
2022-12-31T20:15:22.679Z,24.20
2022-12-31T20:17:24.932Z,24.00
2022-12-31T20:19:26.709Z,24.00
2022-12-31T20:21:29.062Z,23.90
2022-12-31T20:23:34.461Z,24.50
2022-12-31T20:25:36.243Z,23.60
2022-12-31T20:27:38.499Z,23.90
2022-12-31T20:29:40.297Z,23.60
2022-12-31T20:31:42.097Z,23.50
2022-12-31T20:33:44.696Z,23.60
2022-12-31T20:35:46.992Z,23.60
2022-12-31T20:37:48.739Z,23.60
2022-12-31T20:39:50.506Z,23.60
2022-12-31T20:41:52.351Z,23.60
2022-12-31T20:43:54.060Z,23.60
2022-12-31T20:45:55.898Z,23.60
2022-12-31T20:47:58.128Z,23.60
2022-12-31T20:50:15.219Z,23.60
2022-12-31T20:52:17.015Z,23.60
2022-12-31T20:54:18.764Z,23.60
2022-12-31T20:56:21.334Z,23.40
2022-12-31T20:58:23.727Z,23.30
2022-12-31T21:00:25.517Z,23.10
2022-12-31T21:02:40.883Z,23.20
2022-12-31T21:04:45.330Z,23.00
2022-12-31T21:06:48.021Z,22.90
2022-12-31T21:08:50.205Z,22.90
2022-12-31T21:10:52.063Z,22.90
2022-12-31T21:12:53.877Z,22.70
2022-12-31T21:14:55.663Z,22.80
2022-12-31T21:16:57.588Z,22.70
2022-12-31T21:18:59.462Z,22.70
2022-12-31T21:21:01.341Z,22.60
2022-12-31T21:23:03.189Z,22.50
2022-12-31T21:25:05.669Z,22.60
2022-12-31T21:27:07.657Z,22.40
2022-12-31T21:29:09.531Z,22.50
2022-12-31T21:31:13.352Z,22.50
2022-12-31T21:33:15.279Z,22.50
2022-12-31T21:37:58.393Z,22.50
2022-12-31T21:40:00.624Z,22.50
2022-12-31T21:42:02.633Z,22.30
2022-12-31T21:44:04.517Z,22.30
2022-12-31T21:46:07.369Z,22.30
2022-12-31T21:48:23.245Z,22.30
2022-12-31T21:50:25.423Z,22.20
2022-12-31T21:52:27.255Z,22.20
2022-12-31T21:54:47.799Z,22.10
2022-12-31T21:56:49.615Z,22.00
2022-12-31T21:59:15.502Z,22.00
2022-12-31T22:01:39.181Z,22.10
2022-12-31T22:03:41.517Z,22.10
2022-12-31T22:05:52.050Z,22.10
2022-12-31T22:07:53.779Z,22.20
2022-12-31T22:09:55.655Z,22.20
2022-12-31T22:11:57.352Z,22.10
2022-12-31T22:13:59.108Z,22.20
2022-12-31T22:16:05.232Z,22.20
2022-12-31T22:18:07.631Z,22.30
2022-12-31T22:20:26.920Z,22.50
2022-12-31T22:22:29.527Z,22.50
2022-12-31T22:24:31.257Z,22.60
2022-12-31T22:26:33.287Z,22.70
2022-12-31T22:28:38.676Z,22.80
2022-12-31T22:30:41.495Z,22.80
2022-12-31T22:32:43.373Z,22.80
2022-12-31T22:34:45.215Z,23.10
2022-12-31T22:36:46.921Z,23.00
2022-12-31T22:38:49.660Z,23.00
2022-12-31T22:40:51.471Z,23.00
2022-12-31T22:42:54.661Z,23.00
2022-12-31T22:44:56.484Z,23.00
2022-12-31T22:46:58.444Z,22.90
2022-12-31T22:49:02.199Z,22.80
2022-12-31T22:51:04.381Z,22.80
2022-12-31T22:53:06.136Z,23.10
2022-12-31T22:55:08.880Z,23.10
2022-12-31T22:57:16.118Z,23.10
2022-12-31T22:59:21.700Z,23.10
2022-12-31T23:01:25.006Z,23.10
2022-12-31T23:03:27.073Z,23.10
2022-12-31T23:05:28.898Z,23.10
2022-12-31T23:07:30.698Z,23.10
2022-12-31T23:09:51.745Z,23.10
2022-12-31T23:11:53.553Z,23.10
2022-12-31T23:14:14.173Z,23.10
2022-12-31T23:16:34.863Z,23.10
2022-12-31T23:18:59.168Z,23.10
2022-12-31T23:21:28.726Z,23.00
2022-12-31T23:23:30.844Z,23.10
2022-12-31T23:25:34.796Z,23.00
2022-12-31T23:27:37.062Z,23.10
2022-12-31T23:29:46.222Z,23.00
2022-12-31T23:31:49.177Z,23.00
2022-12-31T23:33:50.989Z,22.80
2022-12-31T23:36:06.735Z,22.90
2022-12-31T23:38:08.516Z,22.90
2022-12-31T23:40:15.741Z,22.90
2022-12-31T23:42:21.079Z,23.50
2022-12-31T23:44:22.894Z,22.90
2022-12-31T23:46:24.830Z,22.70
2022-12-31T23:48:26.655Z,22.90
2022-12-31T23:50:28.599Z,22.90
2022-12-31T23:52:30.555Z,22.90
2022-12-31T23:54:32.398Z,23.00
2022-12-31T23:56:34.654Z,22.90
2022-12-31T23:58:36.455Z,22.90
